Time;durP1;ratioP1;P1;durP2;ratioP2;P2;SDS_P1;SDS_P2;PMS_P1;PMS_P2;Temp;Humidity;BMP_temperature;BMP_pressure;BME280_temperature;BME280_humidity;BME280_pressure;Samples;Min_cycle;Max_cycle;Signal;HPM_P1;HPM_P2
2022/07/29 00:00:03;;;;;;;8.48;5.97;;;;;;;;;;5090680;28;20682;-65
2022/07/29 00:02:31;;;;;;;6.93;6.30;;;;;;;;;;5104104;28;20211;-69
2022/07/29 00:04:59;;;;;;;6.50;5.95;;;;;;;;;;5088941;28;20273;-66
2022/07/29 00:07:26;;;;;;;6.28;5.78;;;;;;;;;;5083412;28;20224;-65
2022/07/29 00:09:54;;;;;;;6.90;6.25;;;;;;;;;;5097568;28;20613;-66
2022/07/29 00:12:23;;;;;;;6.32;5.72;;;;;;;;;;5088528;28;20211;-67
2022/07/29 00:14:55;;;;;;;7.10;6.47;;;;;;;;;;5104843;28;20261;-65
2022/07/29 00:17:23;;;;;;;7.72;7.05;;;;;;;;;;5096514;28;20234;-67
2022/07/29 00:19:50;;;;;;;8.05;7.25;;;;;;;;;;5110817;28;20203;-67
2022/07/29 00:22:18;;;;;;;8.15;7.35;;;;;;;;;;5103802;28;20207;-68
2022/07/29 00:24:45;;;;;;;8.55;7.57;;;;;;;;;;5100458;28;20208;-65
2022/07/29 00:27:13;;;;;;;8.25;7.50;;;;;;;;;;5088854;28;20575;-66
2022/07/29 00:29:40;;;;;;;8.70;7.93;;;;;;;;;;5096148;28;20211;-67
2022/07/29 00:32:08;;;;;;;10.43;8.02;;;;;;;;;;5082664;28;20204;-68
2022/07/29 00:37:21;;;;;;;8.20;7.50;;;;;;;;;;5106454;27;20220;-68
2022/07/29 00:39:48;;;;;;;8.80;8.00;;;;;;;;;;5084474;28;20212;-65
2022/07/29 00:42:16;;;;;;;9.00;7.53;;;;;;;;;;5093042;28;20212;-65
2022/07/29 00:44:44;;;;;;;8.93;8.13;;;;;;;;;;5090275;27;20204;-67
2022/07/29 00:47:12;;;;;;;8.68;7.97;;;;;;;;;;5087100;28;20228;-66
2022/07/29 00:49:41;;;;;;;9.90;9.00;;;;;;;;;;5080391;27;20196;-66
2022/07/29 00:52:09;;;;;;;10.52;9.52;;;;;;;;;;5095455;27;20720;-65
2022/07/29 00:54:38;;;;;;;9.93;8.93;;;;;;;;;;5090670;28;20614;-64
2022/07/29 00:57:11;;;;;;;9.45;8.75;;;;;;;;;;5102295;27;20236;-64
2022/07/29 00:59:38;;;;;;;10.20;9.20;;;;;;;;;;5089712;28;20248;-65
2022/07/29 01:02:06;;;;;;;10.15;9.25;;;;;;;;;;5086573;27;20558;-66
2022/07/29 01:04:34;;;;;;;11.13;9.95;;;;;;;;;;5094586;27;20204;-67
2022/07/29 01:07:02;;;;;;;11.23;10.15;;;;;;;;;;5082102;28;20224;-66
2022/07/29 01:09:30;;;;;;;12.68;11.45;;;;;;;;;;5082378;28;20209;-66
2022/07/29 01:12:18;;;;;;;12.63;11.52;;;;;;;;;;5084597;27;20564;-64
2022/07/29 01:14:46;;;;;;;14.15;12.65;;;;;;;;;;5103800;27;20258;-64
2022/07/29 01:17:20;;;;;;;14.63;13.23;;;;;;;;;;5087493;28;20224;-66
2022/07/29 01:19:53;;;;;;;15.05;13.57;;;;;;;;;;5087361;28;20212;-66
2022/07/29 01:22:28;;;;;;;14.77;13.45;;;;;;;;;;5109453;27;20215;-69
2022/07/29 01:24:58;;;;;;;15.70;14.10;;;;;;;;;;5110218;27;20236;-64
2022/07/29 01:27:29;;;;;;;15.88;14.35;;;;;;;;;;5084809;28;20220;-65
2022/07/29 01:29:58;;;;;;;18.80;16.92;;;;;;;;;;5079994;28;20208;-66
2022/07/29 01:32:30;;;;;;;18.90;17.00;;;;;;;;;;5093440;27;20255;-69
2022/07/29 01:35:03;;;;;;;20.63;18.52;;;;;;;;;;5080953;27;21759;-67
2022/07/29 01:37:43;;;;;;;19.55;16.98;;;;;;;;;;5084871;28;20242;-69
2022/07/29 01:40:14;;;;;;;18.50;16.67;;;;;;;;;;5081124;28;20278;-67
2022/07/29 01:42:48;;;;;;;17.27;15.63;;;;;;;;;;5090227;27;20218;-66
2022/07/29 01:45:18;;;;;;;16.75;15.13;;;;;;;;;;5090373;28;20230;-66
2022/07/29 01:47:59;;;;;;;16.55;14.85;;;;;;;;;;5086483;27;20337;-67
2022/07/29 01:50:38;;;;;;;16.73;15.18;;;;;;;;;;5102700;27;20203;-66
2022/07/29 01:53:09;;;;;;;18.10;16.27;;;;;;;;;;5087963;27;20196;-65
2022/07/29 01:55:41;;;;;;;17.63;15.77;;;;;;;;;;5100769;27;20238;-64
2022/07/29 01:58:09;;;;;;;17.83;15.77;;;;;;;;;;5084246;27;20306;-68
2022/07/29 02:00:37;;;;;;;17.38;15.68;;;;;;;;;;5083985;28;20694;-67
2022/07/29 02:03:07;;;;;;;16.15;14.68;;;;;;;;;;5089868;28;20207;-66
2022/07/29 02:05:36;;;;;;;15.18;13.80;;;;;;;;;;5079552;28;20251;-66
2022/07/29 02:08:04;;;;;;;14.80;13.45;;;;;;;;;;5084503;28;20273;-64
2022/07/29 02:10:33;;;;;;;14.43;13.05;;;;;;;;;;5082113;28;20223;-66
2022/07/29 02:13:01;;;;;;;13.95;12.75;;;;;;;;;;5085806;28;20212;-66
2022/07/29 02:15:29;;;;;;;14.10;12.70;;;;;;;;;;5087903;27;20200;-67
2022/07/29 02:18:00;;;;;;;12.93;11.82;;;;;;;;;;5101537;27;20224;-68
2022/07/29 02:20:28;;;;;;;13.40;12.20;;;;;;;;;;5085998;28;21197;-66
2022/07/29 02:22:57;;;;;;;12.95;11.75;;;;;;;;;;5081108;28;20265;-68
2022/07/29 02:25:25;;;;;;;13.60;12.40;;;;;;;;;;5086787;28;20200;-66
2022/07/29 02:28:04;;;;;;;11.98;10.98;;;;;;;;;;5086474;27;20434;-67
2022/07/29 02:30:32;;;;;;;14.27;12.23;;;;;;;;;;5081832;28;20205;-65
2022/07/29 02:33:00;;;;;;;14.63;13.23;;;;;;;;;;5080585;28;20721;-66
2022/07/29 02:35:27;;;;;;;13.82;12.55;;;;;;;;;;5085485;28;21792;-65
2022/07/29 02:40:49;;;;;;;13.18;11.88;;;;;;;;;;5103748;27;20683;-67
2022/07/29 02:43:17;;;;;;;13.43;12.23;;;;;;;;;;5091650;27;20438;-66
2022/07/29 02:45:45;;;;;;;13.40;12.20;;;;;;;;;;5089141;27;20625;-65
2022/07/29 02:48:19;;;;;;;13.90;12.48;;;;;;;;;;5082623;28;20641;-64
2022/07/29 02:50:52;;;;;;;13.70;12.40;;;;;;;;;;5086598;28;20197;-66
2022/07/29 02:53:21;;;;;;;15.75;13.57;;;;;;;;;;5086355;27;20219;-66
2022/07/29 02:56:00;;;;;;;14.38;12.98;;;;;;;;;;5083648;28;20207;-67
2022/07/29 02:58:53;;;;;;;13.85;12.45;;;;;;;;;;5090170;27;20227;-66
2022/07/29 03:01:22;;;;;;;13.82;12.43;;;;;;;;;;5072068;27;20297;-67
2022/07/29 03:03:52;;;;;;;14.20;12.80;;;;;;;;;;5075592;28;20208;-67
2022/07/29 03:06:21;;;;;;;13.27;11.98;;;;;;;;;;5085618;28;20701;-66
2022/07/29 03:09:05;;;;;;;14.32;12.82;;;;;;;;;;5098170;28;20220;-65
2022/07/29 03:11:40;;;;;;;13.15;11.77;;;;;;;;;;5080870;28;20211;-69
2022/07/29 03:14:17;;;;;;;12.55;11.35;;;;;;;;;;5093011;27;20199;-66
2022/07/29 03:16:45;;;;;;;13.90;12.60;;;;;;;;;;5097712;27;20251;-65
2022/07/29 03:19:13;;;;;;;13.70;12.30;;;;;;;;;;5090916;28;20197;-65
2022/07/29 03:21:41;;;;;;;14.95;13.45;;;;;;;;;;5087274;28;20200;-64
2022/07/29 03:24:08;;;;;;;13.77;12.57;;;;;;;;;;5082331;28;20235;-65
2022/07/29 03:26:37;;;;;;;15.02;12.65;;;;;;;;;;5090323;28;20274;-65
2022/07/29 03:29:04;;;;;;;16.33;12.30;;;;;;;;;;5089427;28;20235;-66
2022/07/29 03:31:33;;;;;;;13.32;12.02;;;;;;;;;;5083455;28;20200;-63
2022/07/29 03:34:00;;;;;;;13.05;11.77;;;;;;;;;;5089420;28;20600;-67
2022/07/29 03:36:27;;;;;;;13.80;11.13;;;;;;;;;;5086886;28;20208;-65
2022/07/29 03:38:55;;;;;;;12.57;11.45;;;;;;;;;;5079685;28;20204;-65
2022/07/29 03:41:23;;;;;;;13.60;12.10;;;;;;;;;;5084746;28;20257;-66
2022/07/29 03:43:52;;;;;;;15.05;11.77;;;;;;;;;;5093081;27;20578;-68
2022/07/29 03:46:21;;;;;;;13.23;11.95;;;;;;;;;;5099980;27;20692;-65
2022/07/29 03:48:50;;;;;;;13.77;12.27;;;;;;;;;;5083867;28;20242;-65
2022/07/29 03:51:18;;;;;;;15.00;12.90;;;;;;;;;;5089491;28;20771;-65
2022/07/29 03:54:00;;;;;;;14.48;12.98;;;;;;;;;;5097367;28;20215;-68
2022/07/29 03:56:38;;;;;;;15.80;13.60;;;;;;;;;;5086254;28;20452;-67
2022/07/29 03:59:05;;;;;;;15.95;13.30;;;;;;;;;;5085146;28;20439;-67
2022/07/29 04:01:34;;;;;;;15.93;13.23;;;;;;;;;;5087311;28;20204;-68
2022/07/29 04:04:02;;;;;;;13.27;11.98;;;;;;;;;;5087575;28;20201;-65
2022/07/29 04:06:29;;;;;;;13.48;11.93;;;;;;;;;;5091496;28;20241;-66
2022/07/29 04:08:56;;;;;;;12.90;11.52;;;;;;;;;;5074353;28;20261;-65
2022/07/29 04:11:24;;;;;;;15.65;11.68;;;;;;;;;;5101019;28;20203;-65
2022/07/29 04:13:52;;;;;;;10.38;9.27;;;;;;;;;;5083433;27;20196;-66
2022/07/29 04:16:19;;;;;;;12.05;10.25;;;;;;;;;;5100450;27;20192;-66
2022/07/29 04:18:47;;;;;;;11.80;10.15;;;;;;;;;;5084472;28;20208;-66
2022/07/29 04:21:14;;;;;;;11.45;9.80;;;;;;;;;;5102445;27;20207;-66
2022/07/29 04:23:44;;;;;;;9.75;8.85;;;;;;;;;;5104016;27;20204;-66
2022/07/29 04:26:20;;;;;;;8.98;8.18;;;;;;;;;;5087740;27;20211;-66
2022/07/29 04:28:48;;;;;;;7.93;7.22;;;;;;;;;;5079770;28;20227;-66
2022/07/29 04:31:15;;;;;;;7.47;6.88;;;;;;;;;;5082076;28;20208;-66
2022/07/29 04:33:47;;;;;;;7.47;6.78;;;;;;;;;;5088785;28;20250;-66
2022/07/29 04:36:14;;;;;;;6.63;6.13;;;;;;;;;;5097489;27;20204;-66
2022/07/29 04:38:56;;;;;;;6.47;5.97;;;;;;;;;;5079987;28;20209;-66
2022/07/29 04:41:23;;;;;;;6.45;5.95;;;;;;;;;;5093349;27;20209;-66
2022/07/29 04:44:04;;;;;;;6.10;5.60;;;;;;;;;;5077616;28;20238;-66
2022/07/29 04:46:33;;;;;;;6.47;5.88;;;;;;;;;;5088645;27;20289;-66
2022/07/29 04:49:01;;;;;;;6.28;5.68;;;;;;;;;;5105350;27;20232;-66
2022/07/29 04:51:30;;;;;;;5.75;5.35;;;;;;;;;;5073167;27;20208;-66
2022/07/29 04:53:58;;;;;;;6.07;5.47;;;;;;;;;;5088430;28;20204;-66
2022/07/29 04:56:26;;;;;;;6.20;5.55;;;;;;;;;;5088965;28;20728;-66
2022/07/29 04:58:53;;;;;;;5.82;5.25;;;;;;;;;;5112444;27;20208;-66
2022/07/29 05:01:21;;;;;;;6.68;6.18;;;;;;;;;;5097925;28;20670;-66
2022/07/29 05:03:48;;;;;;;7.00;6.30;;;;;;;;;;5091860;28;20562;-66
2022/07/29 05:06:15;;;;;;;6.18;5.50;;;;;;;;;;5078587;28;20269;-66
2022/07/29 05:08:43;;;;;;;6.97;6.00;;;;;;;;;;5085853;27;20241;-66
2022/07/29 05:11:10;;;;;;;5.80;4.95;;;;;;;;;;5088390;28;20675;-66
2022/07/29 05:13:42;;;;;;;6.80;6.10;;;;;;;;;;5084544;28;20649;-66
2022/07/29 05:16:13;;;;;;;8.73;7.68;;;;;;;;;;5084709;27;20208;-66
2022/07/29 05:18:41;;;;;;;8.05;7.28;;;;;;;;;;5086562;28;20215;-66
2022/07/29 05:21:08;;;;;;;6.80;6.10;;;;;;;;;;5086742;27;20204;-66
2022/07/29 05:23:36;;;;;;;7.35;6.28;;;;;;;;;;5086382;28;20211;-65
2022/07/29 05:26:03;;;;;;;5.97;5.47;;;;;;;;;;5104077;27;20227;-66
2022/07/29 05:28:34;;;;;;;5.72;5.10;;;;;;;;;;5081619;28;20228;-66
2022/07/29 05:31:02;;;;;;;7.53;5.68;;;;;;;;;;5094769;28;20573;-66
2022/07/29 05:33:29;;;;;;;5.78;5.03;;;;;;;;;;5083771;28;20933;-66
2022/07/29 05:36:05;;;;;;;7.43;5.05;;;;;;;;;;5091484;28;20307;-66
2022/07/29 05:38:33;;;;;;;5.50;5.00;;;;;;;;;;5087647;27;20231;-65
2022/07/29 05:41:00;;;;;;;5.72;5.10;;;;;;;;;;5108175;27;20219;-66
2022/07/29 05:43:28;;;;;;;5.30;4.80;;;;;;;;;;5089260;28;20676;-65
2022/07/29 05:45:56;;;;;;;5.60;5.00;;;;;;;;;;5083153;27;20243;-65
2022/07/29 05:48:24;;;;;;;5.63;4.57;;;;;;;;;;5109311;27;20224;-66
2022/07/29 05:50:51;;;;;;;5.53;4.28;;;;;;;;;;5101258;27;20262;-66
2022/07/29 05:53:19;;;;;;;5.20;4.75;;;;;;;;;;5091372;28;20199;-67
2022/07/29 05:55:51;;;;;;;4.70;4.07;;;;;;;;;;5108039;27;20219;-66
2022/07/29 05:58:18;;;;;;;5.45;4.00;;;;;;;;;;5090021;27;20220;-66
2022/07/29 06:00:46;;;;;;;5.80;4.38;;;;;;;;;;5110046;27;20209;-66
2022/07/29 06:03:14;;;;;;;5.90;4.85;;;;;;;;;;5107756;27;20220;-66
2022/07/29 06:05:41;;;;;;;4.82;4.40;;;;;;;;;;5087287;27;20326;-66
2022/07/29 06:08:08;;;;;;;4.32;4.00;;;;;;;;;;5086696;28;20309;-66
2022/07/29 06:10:36;;;;;;;5.18;4.10;;;;;;;;;;5116308;27;20204;-66
2022/07/29 06:13:03;;;;;;;5.65;3.83;;;;;;;;;;5082808;28;20208;-66
2022/07/29 06:15:31;;;;;;;4.40;4.00;;;;;;;;;;5080639;27;20204;-66
2022/07/29 06:17:58;;;;;;;4.60;4.20;;;;;;;;;;5087003;28;20806;-66
2022/07/29 06:20:31;;;;;;;4.63;4.22;;;;;;;;;;5089525;28;20299;-66
2022/07/29 06:22:59;;;;;;;5.40;4.90;;;;;;;;;;5087500;28;20204;-66
2022/07/29 06:25:34;;;;;;;4.65;4.22;;;;;;;;;;5122233;27;20208;-67
2022/07/29 06:28:02;;;;;;;7.38;5.20;;;;;;;;;;5086913;28;20231;-66
2022/07/29 06:30:29;;;;;;;6.57;4.93;;;;;;;;;;5105375;28;20731;-66
2022/07/29 06:32:57;;;;;;;4.80;4.40;;;;;;;;;;5088630;28;20204;-66
2022/07/29 06:35:24;;;;;;;4.30;3.63;;;;;;;;;;5089046;27;20201;-66
2022/07/29 06:38:07;;;;;;;4.60;3.08;;;;;;;;;;5084194;28;20234;-66
2022/07/29 06:41:02;;;;;;;4.72;4.32;;;;;;;;;;5086134;28;20200;-66
2022/07/29 06:43:41;;;;;;;3.83;3.42;;;;;;;;;;5086561;28;20261;-66
2022/07/29 06:46:20;;;;;;;5.65;3.40;;;;;;;;;;5098848;27;20212;-67
2022/07/29 06:48:48;;;;;;;3.72;3.42;;;;;;;;;;5084422;27;20232;-66
2022/07/29 06:51:16;;;;;;;4.35;3.60;;;;;;;;;;5085996;28;20204;-66
2022/07/29 06:53:50;;;;;;;4.10;3.80;;;;;;;;;;5086528;27;20212;-66
2022/07/29 06:56:27;;;;;;;5.97;3.80;;;;;;;;;;5102201;27;20208;-66
2022/07/29 06:58:56;;;;;;;5.55;3.60;;;;;;;;;;5087331;27;20328;-66
2022/07/29 07:01:23;;;;;;;3.83;3.53;;;;;;;;;;5092608;27;20208;-66
2022/07/29 07:03:51;;;;;;;3.55;3.25;;;;;;;;;;5075592;28;20215;-66
2022/07/29 07:06:18;;;;;;;3.80;3.50;;;;;;;;;;5069193;27;20246;-66
2022/07/29 07:08:45;;;;;;;5.55;3.25;;;;;;;;;;5094487;27;20267;-66
2022/07/29 07:11:13;;;;;;;5.07;3.28;;;;;;;;;;5082355;28;20587;-66
2022/07/29 07:13:40;;;;;;;4.15;3.85;;;;;;;;;;5084455;28;20205;-66
2022/07/29 07:16:08;;;;;;;3.70;3.40;;;;;;;;;;5102835;27;20208;-66
2022/07/29 07:18:35;;;;;;;3.63;3.30;;;;;;;;;;5087463;28;20228;-66
2022/07/29 07:21:04;;;;;;;4.13;3.67;;;;;;;;;;5085364;27;20219;-66
2022/07/29 07:23:32;;;;;;;6.47;3.63;;;;;;;;;;5078574;28;20204;-66
2022/07/29 07:25:59;;;;;;;3.35;3.00;;;;;;;;;;5100183;27;20212;-66
2022/07/29 07:28:26;;;;;;;3.25;2.95;;;;;;;;;;5110600;27;20730;-67
2022/07/29 07:30:54;;;;;;;3.08;2.78;;;;;;;;;;5081347;28;20204;-67
2022/07/29 07:33:21;;;;;;;5.18;3.00;;;;;;;;;;5088304;27;20199;-66
2022/07/29 07:35:49;;;;;;;3.22;2.80;;;;;;;;;;5105891;27;20207;-66
2022/07/29 07:38:16;;;;;;;4.88;3.00;;;;;;;;;;5090348;28;20224;-66
2022/07/29 07:40:46;;;;;;;4.40;3.10;;;;;;;;;;5093611;27;20677;-66
2022/07/29 07:43:13;;;;;;;3.58;3.20;;;;;;;;;;5100898;27;20250;-67
2022/07/29 07:45:42;;;;;;;3.17;2.88;;;;;;;;;;5085664;28;20269;-69
2022/07/29 07:48:10;;;;;;;3.47;3.05;;;;;;;;;;5105766;27;21190;-67
2022/07/29 07:50:37;;;;;;;3.33;3.05;;;;;;;;;;5082246;28;20192;-67
2022/07/29 07:53:05;;;;;;;4.05;3.17;;;;;;;;;;5110639;27;20595;-67
2022/07/29 07:55:33;;;;;;;3.72;3.40;;;;;;;;;;5081583;28;20216;-66
2022/07/29 07:58:20;;;;;;;4.35;3.80;;;;;;;;;;5088553;28;20224;-68
2022/07/29 08:00:48;;;;;;;3.33;3.00;;;;;;;;;;5083233;28;20238;-68
2022/07/29 08:03:15;;;;;;;3.45;3.15;;;;;;;;;;5093789;28;20574;-66
2022/07/29 08:05:43;;;;;;;6.63;3.10;;;;;;;;;;5081291;28;20666;-66
2022/07/29 08:08:11;;;;;;;3.80;3.50;;;;;;;;;;5086743;28;20224;-65
2022/07/29 08:10:55;;;;;;;4.05;3.50;;;;;;;;;;5085524;28;20211;-70
2022/07/29 08:13:25;;;;;;;4.90;3.65;;;;;;;;;;5075915;28;20212;-69
2022/07/29 08:15:59;;;;;;;3.65;3.25;;;;;;;;;;5100084;28;20207;-66
2022/07/29 08:18:31;;;;;;;4.18;3.22;;;;;;;;;;5085590;28;20277;-64
2022/07/29 08:20:59;;;;;;;3.75;3.35;;;;;;;;;;5079880;28;20200;-65
2022/07/29 08:23:26;;;;;;;3.53;3.22;;;;;;;;;;5084271;28;20242;-65
2022/07/29 08:26:14;;;;;;;3.80;3.50;;;;;;;;;;5084976;28;20223;-67
2022/07/29 08:28:45;;;;;;;3.40;3.10;;;;;;;;;;5083521;28;20220;-67
2022/07/29 08:31:13;;;;;;;5.25;3.10;;;;;;;;;;5089634;28;20274;-66
2022/07/29 08:33:41;;;;;;;4.60;3.25;;;;;;;;;;5091229;28;20314;-65
2022/07/29 08:36:09;;;;;;;5.70;3.08;;;;;;;;;;5082112;28;20576;-65
2022/07/29 08:38:36;;;;;;;3.25;2.95;;;;;;;;;;5082067;28;20778;-69
2022/07/29 08:41:04;;;;;;;3.20;2.90;;;;;;;;;;5082646;28;20207;-66
2022/07/29 08:43:31;;;;;;;3.45;2.55;;;;;;;;;;5094085;28;20227;-65
2022/07/29 08:45:59;;;;;;;3.28;2.97;;;;;;;;;;5082006;28;20640;-64
2022/07/29 08:48:26;;;;;;;3.03;2.72;;;;;;;;;;5084592;28;20227;-66
2022/07/29 08:50:55;;;;;;;5.32;2.58;;;;;;;;;;5087290;28;20200;-65
2022/07/29 08:53:24;;;;;;;4.78;2.58;;;;;;;;;;5082342;28;20295;-66
2022/07/29 08:55:52;;;;;;;3.72;2.58;;;;;;;;;;5084491;28;20603;-68
2022/07/29 08:58:19;;;;;;;2.95;2.67;;;;;;;;;;5082420;28;20219;-65
2022/07/29 09:00:51;;;;;;;2.92;2.65;;;;;;;;;;5089768;28;20205;-67
2022/07/29 09:03:19;;;;;;;4.55;2.80;;;;;;;;;;5084476;27;20204;-69
2022/07/29 09:05:47;;;;;;;4.20;3.05;;;;;;;;;;5082624;28;20224;-67
2022/07/29 09:08:15;;;;;;;4.72;2.67;;;;;;;;;;5082449;28;20297;-66
2022/07/29 09:10:44;;;;;;;2.50;2.28;;;;;;;;;;5105573;27;20751;-67
2022/07/29 09:13:11;;;;;;;2.85;2.55;;;;;;;;;;5088166;28;20668;-67
2022/07/29 09:15:38;;;;;;;2.72;2.47;;;;;;;;;;5088192;27;20204;-66
2022/07/29 09:18:06;;;;;;;5.80;2.60;;;;;;;;;;5088414;27;20236;-66
2022/07/29 09:23:39;;;;;;;4.70;2.50;;;;;;;;;;5105426;27;20286;-65
2022/07/29 09:26:06;;;;;;;2.97;2.70;;;;;;;;;;5093229;28;20200;-66
2022/07/29 09:28:34;;;;;;;5.15;2.53;;;;;;;;;;5089096;27;20822;-66
2022/07/29 09:31:02;;;;;;;3.70;2.50;;;;;;;;;;5101299;27;20287;-66
2022/07/29 09:33:35;;;;;;;3.70;2.60;;;;;;;;;;5115042;27;20700;-65
2022/07/29 09:36:07;;;;;;;3.53;2.35;;;;;;;;;;5086627;28;20689;-65
2022/07/29 09:38:35;;;;;;;6.55;2.97;;;;;;;;;;5084399;27;20228;-65
2022/07/29 09:41:03;;;;;;;4.15;2.65;;;;;;;;;;5086874;28;20546;-67
2022/07/29 09:43:32;;;;;;;5.28;2.90;;;;;;;;;;5102750;27;20287;-66
2022/07/29 09:46:12;;;;;;;3.03;2.75;;;;;;;;;;5095217;27;20211;-65
2022/07/29 09:48:41;;;;;;;2.83;2.53;;;;;;;;;;5096956;27;20211;-68
2022/07/29 09:51:19;;;;;;;4.72;2.83;;;;;;;;;;5086918;28;20215;-66
2022/07/29 09:53:50;;;;;;;4.78;2.92;;;;;;;;;;5087918;28;20210;-67
2022/07/29 09:56:19;;;;;;;5.15;2.85;;;;;;;;;;5110916;27;20258;-65
2022/07/29 09:58:47;;;;;;;3.50;2.67;;;;;;;;;;5082825;28;21144;-65
2022/07/29 10:01:15;;;;;;;3.13;2.90;;;;;;;;;;5098169;27;20192;-66
2022/07/29 10:03:52;;;;;;;4.63;2.83;;;;;;;;;;5086982;27;20210;-66
2022/07/29 10:06:20;;;;;;;3.00;2.70;;;;;;;;;;5090556;28;20204;-65
2022/07/29 10:08:49;;;;;;;3.13;2.90;;;;;;;;;;5090034;28;20201;-67
2022/07/29 10:11:17;;;;;;;3.20;2.78;;;;;;;;;;5094424;27;20208;-65
2022/07/29 10:13:46;;;;;;;3.05;2.78;;;;;;;;;;5108624;27;20200;-66
2022/07/29 10:16:14;;;;;;;3.30;2.88;;;;;;;;;;5089765;28;20257;-65
2022/07/29 10:18:46;;;;;;;5.78;2.60;;;;;;;;;;5094359;27;20619;-66
2022/07/29 10:21:14;;;;;;;3.88;2.50;;;;;;;;;;5090537;27;20203;-65
2022/07/29 10:24:02;;;;;;;4.05;2.80;;;;;;;;;;5091523;27;20250;-64
2022/07/29 10:26:30;;;;;;;3.20;2.90;;;;;;;;;;5113400;27;20200;-64
2022/07/29 10:28:58;;;;;;;4.88;2.78;;;;;;;;;;5088680;28;20604;-65
2022/07/29 10:31:29;;;;;;;3.25;2.65;;;;;;;;;;5079421;28;20219;-66
2022/07/29 10:33:57;;;;;;;5.07;2.88;;;;;;;;;;5096255;27;20204;-65
2022/07/29 10:36:41;;;;;;;3.25;2.90;;;;;;;;;;5079825;28;20214;-67
2022/07/29 10:39:33;;;;;;;3.03;2.80;;;;;;;;;;5080782;27;20204;-68
2022/07/29 10:42:15;;;;;;;5.18;2.85;;;;;;;;;;5096367;27;20192;-66
2022/07/29 10:44:46;;;;;;;3.60;3.05;;;;;;;;;;5081031;28;20258;-65
2022/07/29 10:47:24;;;;;;;3.50;2.60;;;;;;;;;;5090146;28;20285;-66
2022/07/29 10:50:02;;;;;;;4.18;3.00;;;;;;;;;;5084858;28;20718;-67
2022/07/29 10:52:49;;;;;;;4.80;2.85;;;;;;;;;;5083393;27;20203;-65
2022/07/29 10:55:34;;;;;;;4.53;2.65;;;;;;;;;;5085593;28;20196;-64
2022/07/29 10:58:23;;;;;;;5.60;2.90;;;;;;;;;;5085925;27;20318;-63
2022/07/29 11:00:51;;;;;;;4.20;2.83;;;;;;;;;;5075249;28;20208;-65
2022/07/29 11:03:38;;;;;;;5.28;3.15;;;;;;;;;;5083963;28;20204;-64
2022/07/29 11:06:15;;;;;;;4.22;2.90;;;;;;;;;;5106972;27;20678;-66
2022/07/29 11:08:44;;;;;;;5.20;2.70;;;;;;;;;;5079375;28;20208;-64
2022/07/29 11:11:19;;;;;;;3.28;2.85;;;;;;;;;;5089427;28;20227;-65
2022/07/29 11:13:50;;;;;;;2.92;2.72;;;;;;;;;;5085502;28;20239;-64
2022/07/29 11:16:23;;;;;;;3.30;3.00;;;;;;;;;;5088976;28;20258;-67
2022/07/29 11:19:10;;;;;;;3.30;2.97;;;;;;;;;;5086889;28;20257;-66
2022/07/29 11:21:40;;;;;;;3.65;2.75;;;;;;;;;;5088317;28;20296;-65
2022/07/29 11:24:30;;;;;;;5.43;2.83;;;;;;;;;;5100429;27;20632;-65
2022/07/29 11:27:10;;;;;;;3.67;2.90;;;;;;;;;;5089797;28;20608;-66
2022/07/29 11:29:50;;;;;;;4.63;2.60;;;;;;;;;;5087171;28;20344;-66
2022/07/29 11:32:19;;;;;;;4.20;2.95;;;;;;;;;;5083318;27;20215;-66
2022/07/29 11:34:50;;;;;;;6.18;2.88;;;;;;;;;;5112115;27;20196;-65
2022/07/29 11:37:18;;;;;;;4.60;2.67;;;;;;;;;;5091481;28;20240;-66
2022/07/29 11:39:56;;;;;;;2.83;2.63;;;;;;;;;;5103244;27;20211;-67
2022/07/29 11:42:28;;;;;;;4.15;2.60;;;;;;;;;;5112495;27;20246;-65
2022/07/29 11:45:05;;;;;;;3.13;2.40;;;;;;;;;;5088485;28;20228;-66
2022/07/29 11:47:53;;;;;;;3.65;2.47;;;;;;;;;;5086074;28;20216;-65
2022/07/29 11:50:33;;;;;;;2.92;2.72;;;;;;;;;;5095906;28;20285;-67
2022/07/29 11:53:02;;;;;;;4.63;2.95;;;;;;;;;;5082779;27;20290;-64
2022/07/29 11:55:37;;;;;;;3.30;2.45;;;;;;;;;;5095494;27;20203;-64
2022/07/29 11:58:22;;;;;;;3.08;2.40;;;;;;;;;;5088740;28;20770;-65
2022/07/29 12:00:52;;;;;;;2.65;2.40;;;;;;;;;;5083555;28;20668;-66
2022/07/29 12:03:40;;;;;;;4.70;2.30;;;;;;;;;;5092700;28;20199;-66
2022/07/29 12:06:13;;;;;;;2.65;2.45;;;;;;;;;;5085319;28;20549;-66
2022/07/29 12:08:44;;;;;;;3.78;2.03;;;;;;;;;;5090476;28;20659;-65
2022/07/29 12:11:17;;;;;;;2.35;2.00;;;;;;;;;;5115168;28;20266;-65
2022/07/29 12:13:48;;;;;;;3.78;1.98;;;;;;;;;;5090857;28;21983;-65
2022/07/29 12:16:16;;;;;;;3.70;2.30;;;;;;;;;;5093056;28;20204;-64
2022/07/29 12:19:02;;;;;;;2.78;2.22;;;;;;;;;;5093965;28;20200;-67
2022/07/29 12:21:43;;;;;;;2.20;2.00;;;;;;;;;;5113235;28;20278;-65
2022/07/29 12:24:25;;;;;;;3.92;2.85;;;;;;;;;;5091548;28;20200;-65
2022/07/29 12:26:54;;;;;;;4.13;2.10;;;;;;;;;;5095048;28;20665;-65
2022/07/29 12:29:22;;;;;;;3.13;2.30;;;;;;;;;;5091993;28;20203;-66
2022/07/29 12:32:02;;;;;;;2.75;2.00;;;;;;;;;;5093789;28;20201;-65
2022/07/29 12:34:30;;;;;;;4.88;2.10;;;;;;;;;;5121345;27;20202;-66
2022/07/29 12:36:58;;;;;;;2.35;2.10;;;;;;;;;;5095230;28;20927;-66
2022/07/29 12:39:27;;;;;;;1.98;1.88;;;;;;;;;;5095923;27;20199;-64
2022/07/29 12:41:55;;;;;;;4.35;3.80;;;;;;;;;;5099769;27;20204;-65
2022/07/29 12:44:50;;;;;;;2.75;2.55;;;;;;;;;;5093525;27;20243;-66
2022/07/29 12:47:19;;;;;;;2.20;2.10;;;;;;;;;;5083204;28;20215;-64
2022/07/29 12:49:46;;;;;;;2.13;2.00;;;;;;;;;;5099037;27;20221;-64
2022/07/29 12:52:30;;;;;;;4.55;2.45;;;;;;;;;;5118315;27;20197;-64
2022/07/29 12:54:58;;;;;;;2.80;2.60;;;;;;;;;;5097303;27;20195;-64
2022/07/29 12:57:26;;;;;;;4.07;2.20;;;;;;;;;;5089137;28;20225;-65
2022/07/29 13:00:00;;;;;;;3.67;2.05;;;;;;;;;;5096549;28;20208;-66
2022/07/29 13:02:27;;;;;;;2.38;2.17;;;;;;;;;;5093210;28;20214;-65
2022/07/29 13:04:56;;;;;;;2.53;2.33;;;;;;;;;;5095717;28;20717;-67
2022/07/29 13:07:25;;;;;;;2.72;2.25;;;;;;;;;;5090054;28;20311;-65
2022/07/29 13:10:17;;;;;;;3.33;2.80;;;;;;;;;;5094030;27;20232;-64
2022/07/29 13:13:10;;;;;;;3.47;3.28;;;;;;;;;;5092171;27;20307;-66
2022/07/29 13:15:38;;;;;;;6.57;3.25;;;;;;;;;;5112879;27;20204;-64
2022/07/29 13:18:06;;;;;;;4.30;3.45;;;;;;;;;;5101311;28;20286;-65
2022/07/29 13:20:34;;;;;;;4.03;3.63;;;;;;;;;;5094124;27;20207;-65
2022/07/29 13:23:01;;;;;;;4.75;3.97;;;;;;;;;;5089881;27;20205;-64
2022/07/29 13:25:30;;;;;;;3.95;3.63;;;;;;;;;;5114073;27;20650;-66
2022/07/29 13:27:58;;;;;;;4.10;3.70;;;;;;;;;;5102685;28;20219;-64
2022/07/29 13:30:25;;;;;;;4.65;3.60;;;;;;;;;;5098230;27;20306;-64
2022/07/29 13:32:53;;;;;;;6.15;3.65;;;;;;;;;;5104869;27;20232;-64
2022/07/29 13:35:21;;;;;;;5.30;3.58;;;;;;;;;;5095499;28;20389;-64
2022/07/29 13:37:48;;;;;;;3.72;3.42;;;;;;;;;;5088242;27;20232;-63
2022/07/29 13:40:18;;;;;;;5.32;3.55;;;;;;;;;;5095409;28;20207;-64
2022/07/29 13:42:45;;;;;;;3.70;3.40;;;;;;;;;;5101525;27;20662;-66
2022/07/29 13:45:13;;;;;;;4.10;3.70;;;;;;;;;;5094679;27;20228;-65
2022/07/29 13:47:40;;;;;;;3.67;3.35;;;;;;;;;;5093089;28;20282;-67
2022/07/29 13:50:15;;;;;;;4.70;3.65;;;;;;;;;;5100289;27;20508;-66
2022/07/29 13:52:43;;;;;;;5.32;3.25;;;;;;;;;;5093723;28;20253;-65
2022/07/29 13:55:10;;;;;;;4.03;3.63;;;;;;;;;;5095615;28;20269;-66
2022/07/29 13:57:37;;;;;;;5.00;3.70;;;;;;;;;;5084350;28;20891;-66
2022/07/29 14:00:05;;;;;;;4.57;3.40;;;;;;;;;;5091170;28;20204;-65
2022/07/29 14:02:33;;;;;;;3.20;2.83;;;;;;;;;;5095165;28;20200;-65
2022/07/29 14:05:00;;;;;;;6.82;3.40;;;;;;;;;;5108600;27;20571;-66
2022/07/29 14:07:35;;;;;;;3.47;3.10;;;;;;;;;;5120620;27;20243;-66
2022/07/29 14:10:03;;;;;;;3.22;2.92;;;;;;;;;;5102450;28;20224;-66
2022/07/29 14:12:31;;;;;;;5.07;3.08;;;;;;;;;;5086765;28;20208;-67
2022/07/29 14:14:58;;;;;;;4.35;3.00;;;;;;;;;;5086130;28;20199;-64
2022/07/29 14:17:26;;;;;;;3.42;3.10;;;;;;;;;;5113001;27;20286;-65
2022/07/29 14:19:53;;;;;;;6.10;2.60;;;;;;;;;;5087131;28;20204;-67
2022/07/29 14:22:20;;;;;;;2.45;2.30;;;;;;;;;;5085542;27;20193;-65
2022/07/29 14:24:52;;;;;;;3.38;2.63;;;;;;;;;;5092704;28;20200;-65
2022/07/29 14:27:19;;;;;;;3.88;3.05;;;;;;;;;;5090591;28;20228;-66
2022/07/29 14:30:04;;;;;;;4.50;2.80;;;;;;;;;;5087966;28;20646;-64
2022/07/29 14:32:31;;;;;;;3.90;3.05;;;;;;;;;;5086579;28;20242;-65
2022/07/29 14:34:58;;;;;;;4.53;3.05;;;;;;;;;;5084080;28;20196;-65
2022/07/29 14:37:26;;;;;;;3.85;3.30;;;;;;;;;;5089497;27;20229;-68
2022/07/29 14:39:54;;;;;;;3.25;2.95;;;;;;;;;;5077400;28;20672;-65
2022/07/29 14:42:21;;;;;;;3.78;2.90;;;;;;;;;;5083226;28;20219;-65
2022/07/29 14:44:49;;;;;;;3.58;3.05;;;;;;;;;;5098659;27;20205;-68
2022/07/29 14:47:16;;;;;;;3.13;2.85;;;;;;;;;;5095035;27;20225;-65
2022/07/29 14:49:44;;;;;;;3.50;3.00;;;;;;;;;;5087001;28;20319;-66
2022/07/29 14:52:11;;;;;;;3.85;3.22;;;;;;;;;;5082423;28;20715;-65
2022/07/29 14:54:38;;;;;;;3.33;3.03;;;;;;;;;;5088792;27;20212;-66
2022/07/29 14:57:06;;;;;;;4.10;3.17;;;;;;;;;;5086491;28;20718;-65
2022/07/29 14:59:33;;;;;;;3.17;2.88;;;;;;;;;;5084853;27;20241;-66
2022/07/29 15:02:01;;;;;;;5.00;3.10;;;;;;;;;;5085089;28;20201;-65
2022/07/29 15:04:29;;;;;;;3.05;2.75;;;;;;;;;;5081757;28;20660;-65
2022/07/29 15:06:57;;;;;;;3.38;3.05;;;;;;;;;;5077834;27;20220;-66